createdAt,value
2023-01-31T11:39:18.054Z,10.4
2023-01-31T11:44:53.612Z,10.3
2023-01-31T11:50:28.904Z,10.7
2023-01-31T11:56:04.783Z,10.2
2023-01-31T12:01:40.412Z,10.7
2023-01-31T12:08:01.708Z,10.4
2023-01-31T12:13:36.960Z,11.1
2023-01-31T12:19:49.829Z,11.1
2023-01-31T12:25:24.923Z,11.3
2023-01-31T12:31:00.356Z,10.9
2023-01-31T12:36:38.646Z,11.1
2023-01-31T12:42:16.620Z,11.9
2023-01-31T12:47:57.341Z,12.3
2023-01-31T12:53:34.342Z,12.4
2023-01-31T12:59:16.158Z,12.7
2023-01-31T13:05:09.547Z,13.2
2023-01-31T13:10:45.213Z,13.2
2023-01-31T13:16:20.572Z,13.4
2023-01-31T13:22:19.231Z,13.7
2023-01-31T13:28:13.473Z,14.3
2023-01-31T13:33:48.648Z,14.5
2023-01-31T13:39:24.973Z,14.4
2023-01-31T13:45:02.179Z,14.5
2023-01-31T13:50:38.873Z,14.9
2023-01-31T13:56:16.549Z,14.9
2023-01-31T14:01:51.873Z,15.2
2023-01-31T14:07:29.724Z,15.5
2023-01-31T14:13:06.035Z,16
2023-01-31T14:18:41.668Z,16.7
2023-01-31T14:24:27.085Z,18
2023-01-31T14:30:05.106Z,19.3
2023-01-31T14:35:52.368Z,19.9
2023-01-31T14:41:35.008Z,21.9
2023-01-31T14:48:04.888Z,24.5
2023-01-31T14:53:38.429Z,25.5
2023-01-31T14:59:39.846Z,24.6
2023-01-31T15:05:26.076Z,25.6
2023-01-31T15:11:01.417Z,22.7
2023-01-31T15:16:36.694Z,24.2
2023-01-31T15:22:13.963Z,20.4
2023-01-31T15:27:50.293Z,17.6
2023-01-31T15:33:29.249Z,15.5
2023-01-31T15:39:07.338Z,14.4
2023-01-31T15:44:44.018Z,14
2023-01-31T15:50:30.277Z,13.2
2023-01-31T15:56:05.242Z,12.5
2023-01-31T16:02:04.041Z,12.2
2023-01-31T16:08:25.185Z,11.9
2023-01-31T16:14:20.391Z,11.9
2023-01-31T16:20:33.604Z,12
2023-01-31T16:26:08.449Z,12.1
2023-01-31T16:31:52.668Z,12
2023-01-31T16:37:30.803Z,11.8
2023-01-31T16:43:21.876Z,11.7
2023-01-31T16:49:24.288Z,11.6
2023-01-31T16:54:57.577Z,11.4
2023-01-31T17:00:35.516Z,11
2023-01-31T17:06:11.538Z,10.5
2023-01-31T17:11:50.449Z,10.2
2023-01-31T17:17:28.614Z,9.6
2023-01-31T17:23:18.930Z,9.2
2023-01-31T17:29:01.809Z,9.2
2023-01-31T17:34:47.799Z,9.1
2023-01-31T17:40:37.009Z,9
2023-01-31T17:46:40.118Z,9
2023-01-31T17:52:15.065Z,9.4
2023-01-31T17:57:54.234Z,10.4
2023-01-31T18:03:36.444Z,10.7
2023-01-31T18:09:22.804Z,10.8
2023-01-31T18:15:01.573Z,10.9
2023-01-31T18:20:44.488Z,11
2023-01-31T18:26:22.709Z,11.1
2023-01-31T18:31:58.704Z,11.2
2023-01-31T18:37:53.593Z,11.3
2023-01-31T18:43:33.698Z,11.4
2023-01-31T18:49:13.933Z,11.5
2023-01-31T18:54:58.650Z,11.6
2023-01-31T19:00:34.276Z,11.6
2023-01-31T19:06:29.677Z,11.7
2023-01-31T19:12:05.296Z,11.7
2023-01-31T19:17:43.700Z,11.8
2023-01-31T19:23:21.712Z,11.8
2023-01-31T19:29:07.536Z,11.7
2023-01-31T19:34:47.848Z,11.7
2023-01-31T19:40:26.066Z,11.7
